"WATCHING THE WEATHER TO PROTECT LIFE AND PROPERTY"


Satelliet (InfraRood)


KFLL 041411Z AUTO 33006KT 10SM BKN014 22/20 A3005 RMK AO2 T02170200
KMCO 041353Z 01005KT 10SM OVC006 14/13 A3009 RMK AO2 SLP189 T01440133
KMIA 041353Z 32004KT 10SM OVC014 21/18 A3005 RMK AO2 SLP177 T02060183
KTPA 041407Z 06004KT 10SM BKN010 OVC019 18/15 A3008 RMK AO2 CIG 008V011 T01780150
MDPP 041400Z 00000KT 9999 FEW018 26/21 Q1016 NOSIG
MDSD 041400Z 07006KT 9999 SCT020 25/22 Q1016 NOSIG
MKJS 041400Z 35003KT 9999 FEW022 27/21 Q1016
MTPP 041400Z 09012KT 9999 FEW022 27/20 Q1015 A2998
MUHA 041355Z 00000KT 9000 FEW020 20/20 Q1018
MYNN 041400Z 03007KT 9999 FEW020 24/20 A3003
TAPA 041400Z 10009KT 9999 SCT018 26/21 Q1016 NOSIG
TFFF 041400Z AUTO 11013KT 9999 SCT028 28/20 Q1016 TEMPO 4000 SHRA SCT015TCU
TFFR 041400Z AUTO 12009KT 090V170 9999 FEW032 SCT040 27/19 Q1016 TEMPO 4000 SHRA SCT015TCU
TIST 041353Z 11010KT 10SM FEW030 27/20 A3003 RMK AO2 SLP170 T02670200 $
TISX 041353Z 10010KT 10SM SCT023 28/21 A3004
TJSJ 041356Z 09006KT 10SM FEW030 FEW075 26/21 A3004 RMK AO2 RAB35E45 SLP172 P0000 T02610206
TKPK 041400Z 06008KT 9999 SCT021 27/22 Q1017
TNCA 041400Z 11018KT 9999 BKN024 28/21 Q1014 NOSIG
TNCB 041355Z AUTO 10014KT 070V130 9999 SCT020/// SCT030/// 27/21 Q1015
TNCC 041400Z 10012KT 9999 SCT020 28/21 Q1015 NOSIG
TNCE 041355Z AUTO 08012KT 050V110 //// // ///////// 27/20 Q1017 RE//
TNCM 041400Z 10010KT 070V140 9999 SCT018 27/20 Q1017 A3003 NOSIG RMK SHRA SE
TQPF 041400Z 11011KT 9999 SCT019 26/20 Q1017
TUPJ 041400Z 12009KT 10SM FEW020 27/19 A3004 RMK Q1017